sensor_id;sensor_type;location;lat;lon;timestamp;P1;durP1;ratioP1;P2;durP2;ratioP2
74227;SDS011;62587;52.352;5.006;2022-08-19T00:00:44;3.50;;;3.05;;
74227;SDS011;62587;52.352;5.006;2022-08-19T00:03:09;3.88;;;3.38;;
74227;SDS011;62587;52.352;5.006;2022-08-19T00:05:35;4.45;;;3.47;;
74227;SDS011;62587;52.352;5.006;2022-08-19T00:08:00;4.43;;;3.30;;
74227;SDS011;62587;52.352;5.006;2022-08-19T00:10:26;4.82;;;3.28;;
74227;SDS011;62587;52.352;5.006;2022-08-19T00:12:52;4.50;;;3.35;;
74227;SDS011;62587;52.352;5.006;2022-08-19T00:15:18;4.25;;;3.08;;
74227;SDS011;62587;52.352;5.006;2022-08-19T00:17:46;4.18;;;3.55;;
74227;SDS011;62587;52.352;5.006;2022-08-19T00:20:13;4.57;;;3.67;;
74227;SDS011;62587;52.352;5.006;2022-08-19T00:22:41;5.28;;;3.40;;
74227;SDS011;62587;52.352;5.006;2022-08-19T00:25:07;5.18;;;3.55;;
74227;SDS011;62587;52.352;5.006;2022-08-19T00:27:33;4.68;;;4.28;;
74227;SDS011;62587;52.352;5.006;2022-08-19T00:29:59;4.13;;;3.72;;
74227;SDS011;62587;52.352;5.006;2022-08-19T00:32:28;4.20;;;3.70;;
74227;SDS011;62587;52.352;5.006;2022-08-19T00:34:53;5.63;;;3.90;;
74227;SDS011;62587;52.352;5.006;2022-08-19T00:37:22;4.85;;;3.60;;
74227;SDS011;62587;52.352;5.006;2022-08-19T00:39:50;4.50;;;3.90;;
74227;SDS011;62587;52.352;5.006;2022-08-19T00:42:17;4.63;;;3.47;;
74227;SDS011;62587;52.352;5.006;2022-08-19T00:44:43;5.55;;;3.50;;
74227;SDS011;62587;52.352;5.006;2022-08-19T00:47:09;5.75;;;3.75;;
74227;SDS011;62587;52.352;5.006;2022-08-19T00:49:40;4.15;;;3.75;;
74227;SDS011;62587;52.352;5.006;2022-08-19T00:52:12;5.07;;;4.32;;
74227;SDS011;62587;52.352;5.006;2022-08-19T00:54:41;4.90;;;4.47;;
74227;SDS011;62587;52.352;5.006;2022-08-19T00:57:09;5.40;;;4.07;;
74227;SDS011;62587;52.352;5.006;2022-08-19T00:59:38;4.88;;;3.83;;
74227;SDS011;62587;52.352;5.006;2022-08-19T01:02:05;4.43;;;3.65;;
74227;SDS011;62587;52.352;5.006;2022-08-19T01:04:31;4.65;;;3.72;;
74227;SDS011;62587;52.352;5.006;2022-08-19T01:06:56;5.07;;;4.20;;
74227;SDS011;62587;52.352;5.006;2022-08-19T01:09:22;4.88;;;4.00;;
74227;SDS011;62587;52.352;5.006;2022-08-19T01:11:48;5.55;;;4.93;;
74227;SDS011;62587;52.352;5.006;2022-08-19T01:14:14;5.03;;;4.53;;
74227;SDS011;62587;52.352;5.006;2022-08-19T01:16:41;6.35;;;4.80;;
74227;SDS011;62587;52.352;5.006;2022-08-19T01:19:18;6.07;;;5.43;;
74227;SDS011;62587;52.352;5.006;2022-08-19T01:21:55;6.50;;;4.97;;
74227;SDS011;62587;52.352;5.006;2022-08-19T01:24:43;6.93;;;6.03;;
74227;SDS011;62587;52.352;5.006;2022-08-19T01:27:08;6.65;;;5.95;;
74227;SDS011;62587;52.352;5.006;2022-08-19T01:29:34;7.35;;;5.65;;
74227;SDS011;62587;52.352;5.006;2022-08-19T01:32:06;7.75;;;6.05;;
74227;SDS011;62587;52.352;5.006;2022-08-19T01:34:33;6.13;;;5.32;;
74227;SDS011;62587;52.352;5.006;2022-08-19T01:36:59;6.85;;;5.78;;
74227;SDS011;62587;52.352;5.006;2022-08-19T01:39:26;6.38;;;5.57;;
74227;SDS011;62587;52.352;5.006;2022-08-19T01:41:53;8.55;;;5.97;;
74227;SDS011;62587;52.352;5.006;2022-08-19T01:44:19;6.20;;;5.60;;
74227;SDS011;62587;52.352;5.006;2022-08-19T01:46:48;7.30;;;5.97;;
74227;SDS011;62587;52.352;5.006;2022-08-19T01:49:15;6.45;;;5.53;;
74227;SDS011;62587;52.352;5.006;2022-08-19T01:51:41;6.03;;;5.43;;
74227;SDS011;62587;52.352;5.006;2022-08-19T01:54:07;8.27;;;5.90;;
74227;SDS011;62587;52.352;5.006;2022-08-19T01:59:02;8.05;;;6.35;;
74227;SDS011;62587;52.352;5.006;2022-08-19T02:01:30;8.25;;;5.70;;
74227;SDS011;62587;52.352;5.006;2022-08-19T02:03:57;8.25;;;6.15;;
74227;SDS011;62587;52.352;5.006;2022-08-19T02:06:23;6.78;;;6.18;;
74227;SDS011;62587;52.352;5.006;2022-08-19T02:08:49;7.70;;;6.53;;
74227;SDS011;62587;52.352;5.006;2022-08-19T02:11:21;6.80;;;5.90;;
74227;SDS011;62587;52.352;5.006;2022-08-19T02:13:51;8.27;;;6.80;;
74227;SDS011;62587;52.352;5.006;2022-08-19T02:16:18;7.57;;;6.78;;
74227;SDS011;62587;52.352;5.006;2022-08-19T02:18:44;7.32;;;6.63;;
74227;SDS011;62587;52.352;5.006;2022-08-19T02:21:11;9.13;;;7.60;;
74227;SDS011;62587;52.352;5.006;2022-08-19T02:23:38;8.82;;;7.93;;
74227;SDS011;62587;52.352;5.006;2022-08-19T02:26:03;9.75;;;8.75;;
74227;SDS011;62587;52.352;5.006;2022-08-19T02:28:29;9.23;;;8.32;;
74227;SDS011;62587;52.352;5.006;2022-08-19T02:30:54;10.10;;;9.10;;
74227;SDS011;62587;52.352;5.006;2022-08-19T02:33:19;8.87;;;7.83;;
74227;SDS011;62587;52.352;5.006;2022-08-19T02:35:45;8.82;;;7.95;;
74227;SDS011;62587;52.352;5.006;2022-08-19T02:38:12;9.25;;;8.10;;
74227;SDS011;62587;52.352;5.006;2022-08-19T02:41:11;9.73;;;8.68;;
74227;SDS011;62587;52.352;5.006;2022-08-19T02:43:39;11.50;;;9.32;;
74227;SDS011;62587;52.352;5.006;2022-08-19T02:46:18;9.68;;;8.07;;
74227;SDS011;62587;52.352;5.006;2022-08-19T02:48:49;9.60;;;8.60;;
74227;SDS011;62587;52.352;5.006;2022-08-19T02:51:16;9.80;;;8.25;;
74227;SDS011;62587;52.352;5.006;2022-08-19T02:53:46;10.57;;;8.38;;
74227;SDS011;62587;52.352;5.006;2022-08-19T02:56:12;9.32;;;8.32;;
74227;SDS011;62587;52.352;5.006;2022-08-19T02:58:37;9.10;;;8.20;;
74227;SDS011;62587;52.352;5.006;2022-08-19T03:01:03;10.85;;;8.27;;
74227;SDS011;62587;52.352;5.006;2022-08-19T03:03:28;10.02;;;8.75;;
74227;SDS011;62587;52.352;5.006;2022-08-19T03:06:04;11.63;;;9.50;;
74227;SDS011;62587;52.352;5.006;2022-08-19T03:08:30;10.70;;;9.60;;
74227;SDS011;62587;52.352;5.006;2022-08-19T03:10:55;11.77;;;10.43;;
74227;SDS011;62587;52.352;5.006;2022-08-19T03:13:20;11.10;;;8.90;;
74227;SDS011;62587;52.352;5.006;2022-08-19T03:15:46;12.02;;;9.98;;
74227;SDS011;62587;52.352;5.006;2022-08-19T03:18:13;12.85;;;9.98;;
74227;SDS011;62587;52.352;5.006;2022-08-19T03:20:40;12.18;;;10.00;;
74227;SDS011;62587;52.352;5.006;2022-08-19T03:23:10;10.80;;;9.57;;
74227;SDS011;62587;52.352;5.006;2022-08-19T03:25:38;12.40;;;9.50;;
74227;SDS011;62587;52.352;5.006;2022-08-19T03:28:06;11.68;;;9.70;;
74227;SDS011;62587;52.352;5.006;2022-08-19T03:30:32;11.23;;;9.35;;
74227;SDS011;62587;52.352;5.006;2022-08-19T03:32:58;9.43;;;7.75;;
74227;SDS011;62587;52.352;5.006;2022-08-19T03:35:23;12.70;;;8.98;;
74227;SDS011;62587;52.352;5.006;2022-08-19T03:37:49;11.13;;;9.30;;
74227;SDS011;62587;52.352;5.006;2022-08-19T03:40:14;11.30;;;8.87;;
74227;SDS011;62587;52.352;5.006;2022-08-19T03:42:39;9.93;;;7.97;;
74227;SDS011;62587;52.352;5.006;2022-08-19T03:45:07;11.82;;;9.05;;
74227;SDS011;62587;52.352;5.006;2022-08-19T03:47:33;12.13;;;9.52;;
74227;SDS011;62587;52.352;5.006;2022-08-19T03:49:58;11.32;;;9.65;;
74227;SDS011;62587;52.352;5.006;2022-08-19T03:52:24;11.27;;;9.70;;
74227;SDS011;62587;52.352;5.006;2022-08-19T03:54:49;12.45;;;9.70;;
74227;SDS011;62587;52.352;5.006;2022-08-19T03:57:14;15.07;;;10.88;;
74227;SDS011;62587;52.352;5.006;2022-08-19T03:59:40;12.47;;;9.33;;
74227;SDS011;62587;52.352;5.006;2022-08-19T04:02:07;14.48;;;10.48;;
74227;SDS011;62587;52.352;5.006;2022-08-19T04:04:36;12.43;;;10.60;;
74227;SDS011;62587;52.352;5.006;2022-08-19T04:07:03;12.32;;;9.70;;
74227;SDS011;62587;52.352;5.006;2022-08-19T04:09:29;13.40;;;10.65;;
74227;SDS011;62587;52.352;5.006;2022-08-19T04:11:55;17.10;;;10.27;;
74227;SDS011;62587;52.352;5.006;2022-08-19T04:14:23;13.90;;;10.48;;
74227;SDS011;62587;52.352;5.006;2022-08-19T04:16:51;12.43;;;9.65;;
74227;SDS011;62587;52.352;5.006;2022-08-19T04:19:17;14.63;;;9.68;;
74227;SDS011;62587;52.352;5.006;2022-08-19T04:21:44;11.45;;;9.60;;
74227;SDS011;62587;52.352;5.006;2022-08-19T04:26:37;12.82;;;9.95;;
74227;SDS011;62587;52.352;5.006;2022-08-19T04:29:05;14.68;;;11.48;;
74227;SDS011;62587;52.352;5.006;2022-08-19T04:31:33;14.10;;;11.52;;
74227;SDS011;62587;52.352;5.006;2022-08-19T04:34:02;15.40;;;11.90;;
74227;SDS011;62587;52.352;5.006;2022-08-19T04:36:31;15.43;;;11.93;;
74227;SDS011;62587;52.352;5.006;2022-08-19T04:38:59;14.48;;;11.25;;
74227;SDS011;62587;52.352;5.006;2022-08-19T04:41:31;16.80;;;12.55;;
74227;SDS011;62587;52.352;5.006;2022-08-19T04:44:16;16.83;;;12.50;;
74227;SDS011;62587;52.352;5.006;2022-08-19T04:46:43;15.77;;;12.27;;
74227;SDS011;62587;52.352;5.006;2022-08-19T04:49:10;14.50;;;12.50;;
74227;SDS011;62587;52.352;5.006;2022-08-19T04:51:36;12.77;;;11.40;;
74227;SDS011;62587;52.352;5.006;2022-08-19T04:54:02;14.55;;;11.45;;
74227;SDS011;62587;52.352;5.006;2022-08-19T04:56:29;14.45;;;11.82;;
74227;SDS011;62587;52.352;5.006;2022-08-19T04:58:55;14.95;;;11.88;;
74227;SDS011;62587;52.352;5.006;2022-08-19T05:01:26;17.85;;;13.30;;
74227;SDS011;62587;52.352;5.006;2022-08-19T05:03:53;16.88;;;13.70;;
74227;SDS011;62587;52.352;5.006;2022-08-19T05:06:20;20.15;;;14.10;;
74227;SDS011;62587;52.352;5.006;2022-08-19T05:08:46;18.13;;;14.40;;
74227;SDS011;62587;52.352;5.006;2022-08-19T05:11:16;19.67;;;14.35;;
74227;SDS011;62587;52.352;5.006;2022-08-19T05:13:45;15.98;;;12.93;;
74227;SDS011;62587;52.352;5.006;2022-08-19T05:16:12;17.70;;;14.10;;
74227;SDS011;62587;52.352;5.006;2022-08-19T05:18:38;17.63;;;14.05;;
74227;SDS011;62587;52.352;5.006;2022-08-19T05:21:23;20.73;;;15.27;;
74227;SDS011;62587;52.352;5.006;2022-08-19T05:24:08;19.60;;;15.38;;
74227;SDS011;62587;52.352;5.006;2022-08-19T05:26:34;18.83;;;14.00;;
74227;SDS011;62587;52.352;5.006;2022-08-19T05:29:03;19.00;;;14.82;;
74227;SDS011;62587;52.352;5.006;2022-08-19T05:31:29;19.88;;;14.90;;
74227;SDS011;62587;52.352;5.006;2022-08-19T05:33:56;16.95;;;13.65;;
74227;SDS011;62587;52.352;5.006;2022-08-19T05:36:24;19.15;;;14.32;;
74227;SDS011;62587;52.352;5.006;2022-08-19T05:38:50;19.90;;;15.48;;
74227;SDS011;62587;52.352;5.006;2022-08-19T05:41:17;18.10;;;14.07;;
74227;SDS011;62587;52.352;5.006;2022-08-19T05:43:43;18.35;;;13.88;;
74227;SDS011;62587;52.352;5.006;2022-08-19T05:46:08;18.53;;;14.30;;
74227;SDS011;62587;52.352;5.006;2022-08-19T05:48:43;20.15;;;15.43;;
74227;SDS011;62587;52.352;5.006;2022-08-19T05:51:09;17.83;;;13.95;;
74227;SDS011;62587;52.352;5.006;2022-08-19T05:53:34;19.27;;;15.25;;
74227;SDS011;62587;52.352;5.006;2022-08-19T05:56:07;19.70;;;15.38;;
74227;SDS011;62587;52.352;5.006;2022-08-19T05:58:34;19.92;;;15.30;;
74227;SDS011;62587;52.352;5.006;2022-08-19T06:01:01;20.63;;;16.25;;
74227;SDS011;62587;52.352;5.006;2022-08-19T06:03:31;18.58;;;15.15;;
74227;SDS011;62587;52.352;5.006;2022-08-19T06:05:58;19.73;;;15.15;;
74227;SDS011;62587;52.352;5.006;2022-08-19T06:08:27;22.88;;;16.85;;
74227;SDS011;62587;52.352;5.006;2022-08-19T06:10:53;22.48;;;15.60;;
74227;SDS011;62587;52.352;5.006;2022-08-19T06:13:18;21.70;;;15.93;;
74227;SDS011;62587;52.352;5.006;2022-08-19T06:15:44;22.25;;;16.25;;
74227;SDS011;62587;52.352;5.006;2022-08-19T06:18:14;21.83;;;16.33;;
74227;SDS011;62587;52.352;5.006;2022-08-19T06:20:40;24.77;;;16.65;;
74227;SDS011;62587;52.352;5.006;2022-08-19T06:23:06;29.70;;;17.88;;
74227;SDS011;62587;52.352;5.006;2022-08-19T06:25:32;24.10;;;17.60;;
74227;SDS011;62587;52.352;5.006;2022-08-19T06:27:57;29.10;;;19.02;;
74227;SDS011;62587;52.352;5.006;2022-08-19T06:30:23;30.00;;;19.17;;
74227;SDS011;62587;52.352;5.006;2022-08-19T06:32:48;28.13;;;18.48;;
74227;SDS011;62587;52.352;5.006;2022-08-19T06:35:14;31.98;;;22.27;;
74227;SDS011;62587;52.352;5.006;2022-08-19T06:37:39;33.25;;;21.02;;
74227;SDS011;62587;52.352;5.006;2022-08-19T06:40:05;33.03;;;21.40;;
74227;SDS011;62587;52.352;5.006;2022-08-19T06:42:33;33.17;;;20.13;;
74227;SDS011;62587;52.352;5.006;2022-08-19T06:44:59;33.10;;;20.55;;
74227;SDS011;62587;52.352;5.006;2022-08-19T06:47:28;35.10;;;21.80;;
74227;SDS011;62587;52.352;5.006;2022-08-19T06:49:55;35.85;;;21.83;;
74227;SDS011;62587;52.352;5.006;2022-08-19T06:52:25;40.05;;;23.40;;
74227;SDS011;62587;52.352;5.006;2022-08-19T06:54:50;33.97;;;21.97;;
74227;SDS011;62587;52.352;5.006;2022-08-19T06:57:15;39.00;;;23.80;;
74227;SDS011;62587;52.352;5.006;2022-08-19T06:59:41;35.15;;;21.58;;
74227;SDS011;62587;52.352;5.006;2022-08-19T07:02:06;42.17;;;22.95;;
74227;SDS011;62587;52.352;5.006;2022-08-19T07:04:33;41.30;;;23.75;;
74227;SDS011;62587;52.352;5.006;2022-08-19T07:07:04;38.25;;;23.92;;
74227;SDS011;62587;52.352;5.006;2022-08-19T07:09:34;37.38;;;22.80;;
74227;SDS011;62587;52.352;5.006;2022-08-19T07:12:02;33.00;;;20.02;;
74227;SDS011;62587;52.352;5.006;2022-08-19T07:14:29;31.45;;;19.92;;
74227;SDS011;62587;52.352;5.006;2022-08-19T07:16:56;27.52;;;17.92;;
74227;SDS011;62587;52.352;5.006;2022-08-19T07:19:22;28.73;;;18.83;;
74227;SDS011;62587;52.352;5.006;2022-08-19T07:21:51;27.60;;;17.67;;
74227;SDS011;62587;52.352;5.006;2022-08-19T07:24:18;31.60;;;18.63;;
74227;SDS011;62587;52.352;5.006;2022-08-19T07:26:45;28.65;;;17.95;;
74227;SDS011;62587;52.352;5.006;2022-08-19T07:29:11;27.17;;;16.65;;
74227;SDS011;62587;52.352;5.006;2022-08-19T07:31:37;23.13;;;15.77;;
74227;SDS011;62587;52.352;5.006;2022-08-19T07:34:03;25.27;;;16.83;;
74227;SDS011;62587;52.352;5.006;2022-08-19T07:36:37;25.33;;;16.15;;
74227;SDS011;62587;52.352;5.006;2022-08-19T07:39:10;24.45;;;15.35;;
74227;SDS011;62587;52.352;5.006;2022-08-19T07:41:43;23.13;;;14.85;;
74227;SDS011;62587;52.352;5.006;2022-08-19T07:44:10;25.08;;;15.80;;
74227;SDS011;62587;52.352;5.006;2022-08-19T07:46:39;24.23;;;16.00;;
74227;SDS011;62587;52.352;5.006;2022-08-19T07:49:07;23.30;;;15.15;;
74227;SDS011;62587;52.352;5.006;2022-08-19T07:51:33;21.75;;;14.32;;
74227;SDS011;62587;52.352;5.006;2022-08-19T07:53:59;19.75;;;14.18;;
74227;SDS011;62587;52.352;5.006;2022-08-19T07:56:24;22.80;;;15.32;;
74227;SDS011;62587;52.352;5.006;2022-08-19T07:58:51;20.70;;;15.02;;
74227;SDS011;62587;52.352;5.006;2022-08-19T08:01:21;20.10;;;15.48;;
74227;SDS011;62587;52.352;5.006;2022-08-19T08:03:51;20.52;;;14.10;;
74227;SDS011;62587;52.352;5.006;2022-08-19T08:06:37;20.25;;;13.27;;
74227;SDS011;62587;52.352;5.006;2022-08-19T08:09:29;20.40;;;13.68;;
74227;SDS011;62587;52.352;5.006;2022-08-19T08:11:58;21.55;;;14.98;;
74227;SDS011;62587;52.352;5.006;2022-08-19T08:14:27;18.38;;;13.48;;
74227;SDS011;62587;52.352;5.006;2022-08-19T08:16:56;18.67;;;13.52;;
74227;SDS011;62587;52.352;5.006;2022-08-19T08:19:22;21.35;;;13.23;;
74227;SDS011;62587;52.352;5.006;2022-08-19T08:21:50;17.13;;;13.27;;
74227;SDS011;62587;52.352;5.006;2022-08-19T08:24:16;17.75;;;13.07;;
74227;SDS011;62587;52.352;5.006;2022-08-19T08:26:42;19.20;;;12.98;;
74227;SDS011;62587;52.352;5.006;2022-08-19T08:29:09;19.02;;;13.00;;
74227;SDS011;62587;52.352;5.006;2022-08-19T08:31:41;15.38;;;12.43;;
74227;SDS011;62587;52.352;5.006;2022-08-19T08:34:08;15.48;;;13.02;;
74227;SDS011;62587;52.352;5.006;2022-08-19T08:36:37;15.80;;;12.48;;
74227;SDS011;62587;52.352;5.006;2022-08-19T08:39:07;17.83;;;12.18;;
74227;SDS011;62587;52.352;5.006;2022-08-19T08:41:42;15.10;;;12.40;;
74227;SDS011;62587;52.352;5.006;2022-08-19T08:44:17;16.17;;;12.13;;
74227;SDS011;62587;52.352;5.006;2022-08-19T08:46:55;15.38;;;11.85;;
74227;SDS011;62587;52.352;5.006;2022-08-19T08:49:32;14.38;;;11.23;;
74227;SDS011;62587;52.352;5.006;2022-08-19T08:52:07;14.00;;;11.95;;
74227;SDS011;62587;52.352;5.006;2022-08-19T08:54:42;16.02;;;11.25;;
74227;SDS011;62587;52.352;5.006;2022-08-19T08:57:14;16.80;;;11.55;;
74227;SDS011;62587;52.352;5.006;2022-08-19T08:59:45;17.55;;;11.27;;
74227;SDS011;62587;52.352;5.006;2022-08-19T09:02:16;13.48;;;10.43;;
74227;SDS011;62587;52.352;5.006;2022-08-19T09:04:41;17.00;;;10.63;;
74227;SDS011;62587;52.352;5.006;2022-08-19T09:07:25;11.93;;;9.85;;
74227;SDS011;62587;52.352;5.006;2022-08-19T09:09:54;12.90;;;9.90;;
74227;SDS011;62587;52.352;5.006;2022-08-19T09:12:45;13.98;;;10.60;;
74227;SDS011;62587;52.352;5.006;2022-08-19T09:15:21;14.32;;;10.05;;
74227;SDS011;62587;52.352;5.006;2022-08-19T09:17:53;12.30;;;9.60;;
74227;SDS011;62587;52.352;5.006;2022-08-19T09:20:20;13.40;;;9.13;;
74227;SDS011;62587;52.352;5.006;2022-08-19T09:22:47;14.85;;;9.50;;
74227;SDS011;62587;52.352;5.006;2022-08-19T09:25:16;11.48;;;8.95;;
74227;SDS011;62587;52.352;5.006;2022-08-19T09:27:43;12.05;;;9.52;;
74227;SDS011;62587;52.352;5.006;2022-08-19T09:30:16;10.80;;;8.95;;
74227;SDS011;62587;52.352;5.006;2022-08-19T09:32:43;11.20;;;8.45;;
74227;SDS011;62587;52.352;5.006;2022-08-19T09:35:09;12.43;;;9.25;;
74227;SDS011;62587;52.352;5.006;2022-08-19T09:37:35;11.27;;;8.40;;
74227;SDS011;62587;52.352;5.006;2022-08-19T09:40:01;12.43;;;8.40;;
74227;SDS011;62587;52.352;5.006;2022-08-19T09:42:26;11.75;;;8.07;;
74227;SDS011;62587;52.352;5.006;2022-08-19T09:44:51;12.60;;;8.30;;
74227;SDS011;62587;52.352;5.006;2022-08-19T09:47:17;11.20;;;8.43;;
74227;SDS011;62587;52.352;5.006;2022-08-19T09:49:42;9.20;;;8.20;;
74227;SDS011;62587;52.352;5.006;2022-08-19T09:52:08;10.35;;;7.95;;
74227;SDS011;62587;52.352;5.006;2022-08-19T09:54:35;9.70;;;7.57;;
74227;SDS011;62587;52.352;5.006;2022-08-19T09:57:00;8.40;;;7.50;;
74227;SDS011;62587;52.352;5.006;2022-08-19T09:59:26;8.93;;;7.50;;
74227;SDS011;62587;52.352;5.006;2022-08-19T10:01:52;10.95;;;7.05;;
74227;SDS011;62587;52.352;5.006;2022-08-19T10:04:18;9.23;;;6.90;;
74227;SDS011;62587;52.352;5.006;2022-08-19T10:06:46;8.07;;;6.65;;
74227;SDS011;62587;52.352;5.006;2022-08-19T10:09:13;8.52;;;7.13;;
74227;SDS011;62587;52.352;5.006;2022-08-19T10:11:40;6.90;;;6.20;;
74227;SDS011;62587;52.352;5.006;2022-08-19T10:14:07;8.65;;;6.97;;
74227;SDS011;62587;52.352;5.006;2022-08-19T10:16:33;8.55;;;6.55;;
74227;SDS011;62587;52.352;5.006;2022-08-19T10:18:58;8.80;;;6.82;;
74227;SDS011;62587;52.352;5.006;2022-08-19T10:21:28;6.85;;;6.07;;
74227;SDS011;62587;52.352;5.006;2022-08-19T10:23:57;8.60;;;6.47;;
74227;SDS011;62587;52.352;5.006;2022-08-19T10:26:26;10.10;;;6.57;;
74227;SDS011;62587;52.352;5.006;2022-08-19T10:28:53;8.20;;;6.13;;
74227;SDS011;62587;52.352;5.006;2022-08-19T10:31:21;8.52;;;6.15;;
74227;SDS011;62587;52.352;5.006;2022-08-19T10:33:49;8.35;;;6.25;;
74227;SDS011;62587;52.352;5.006;2022-08-19T10:36:17;9.63;;;6.30;;
74227;SDS011;62587;52.352;5.006;2022-08-19T10:38:46;7.38;;;5.97;;
74227;SDS011;62587;52.352;5.006;2022-08-19T10:41:16;7.40;;;5.95;;
74227;SDS011;62587;52.352;5.006;2022-08-19T10:43:43;8.70;;;6.00;;
74227;SDS011;62587;52.352;5.006;2022-08-19T10:46:11;7.07;;;5.40;;
74227;SDS011;62587;52.352;5.006;2022-08-19T10:48:38;6.75;;;5.50;;
74227;SDS011;62587;52.352;5.006;2022-08-19T10:51:04;7.38;;;6.10;;
74227;SDS011;62587;52.352;5.006;2022-08-19T10:53:48;6.80;;;5.20;;
74227;SDS011;62587;52.352;5.006;2022-08-19T10:56:14;6.90;;;5.55;;
74227;SDS011;62587;52.352;5.006;2022-08-19T10:58:58;6.78;;;5.53;;
74227;SDS011;62587;52.352;5.006;2022-08-19T11:01:25;6.45;;;5.63;;
74227;SDS011;62587;52.352;5.006;2022-08-19T11:03:51;6.53;;;5.20;;
74227;SDS011;62587;52.352;5.006;2022-08-19T11:06:17;7.05;;;5.30;;
74227;SDS011;62587;52.352;5.006;2022-08-19T11:08:44;7.45;;;5.03;;
74227;SDS011;62587;52.352;5.006;2022-08-19T11:11:11;5.97;;;5.28;;
74227;SDS011;62587;52.352;5.006;2022-08-19T11:13:39;5.85;;;5.22;;
74227;SDS011;62587;52.352;5.006;2022-08-19T11:16:08;7.57;;;4.88;;
74227;SDS011;62587;52.352;5.006;2022-08-19T11:18:37;6.32;;;5.00;;
74227;SDS011;62587;52.352;5.006;2022-08-19T11:21:08;7.32;;;5.15;;
74227;SDS011;62587;52.352;5.006;2022-08-19T11:23:42;5.80;;;5.07;;
74227;SDS011;62587;52.352;5.006;2022-08-19T11:26:08;6.90;;;5.30;;
74227;SDS011;62587;52.352;5.006;2022-08-19T11:28:34;6.57;;;4.80;;
74227;SDS011;62587;52.352;5.006;2022-08-19T11:31:00;6.15;;;4.57;;
74227;SDS011;62587;52.352;5.006;2022-08-19T11:33:28;5.10;;;4.45;;
74227;SDS011;62587;52.352;5.006;2022-08-19T11:35:54;5.13;;;4.63;;
74227;SDS011;62587;52.352;5.006;2022-08-19T11:38:23;5.70;;;4.60;;
74227;SDS011;62587;52.352;5.006;2022-08-19T11:40:58;6.18;;;4.28;;
74227;SDS011;62587;52.352;5.006;2022-08-19T11:43:25;6.22;;;4.00;;
74227;SDS011;62587;52.352;5.006;2022-08-19T11:45:53;4.22;;;3.78;;
74227;SDS011;62587;52.352;5.006;2022-08-19T11:48:19;4.88;;;3.97;;
74227;SDS011;62587;52.352;5.006;2022-08-19T11:50:47;5.20;;;3.78;;
74227;SDS011;62587;52.352;5.006;2022-08-19T11:53:14;6.80;;;4.18;;
74227;SDS011;62587;52.352;5.006;2022-08-19T11:55:39;5.85;;;4.03;;
74227;SDS011;62587;52.352;5.006;2022-08-19T11:58:05;5.68;;;4.22;;
74227;SDS011;62587;52.352;5.006;2022-08-19T12:00:32;5.45;;;3.70;;
74227;SDS011;62587;52.352;5.006;2022-08-19T12:03:00;4.60;;;3.60;;
74227;SDS011;62587;52.352;5.006;2022-08-19T12:05:26;4.82;;;4.13;;
74227;SDS011;62587;52.352;5.006;2022-08-19T12:07:52;5.85;;;4.35;;
74227;SDS011;62587;52.352;5.006;2022-08-19T12:10:19;4.65;;;3.53;;
74227;SDS011;62587;52.352;5.006;2022-08-19T12:12:44;6.75;;;4.03;;
74227;SDS011;62587;52.352;5.006;2022-08-19T12:15:11;6.03;;;3.78;;
74227;SDS011;62587;52.352;5.006;2022-08-19T12:17:37;6.93;;;3.70;;
74227;SDS011;62587;52.352;5.006;2022-08-19T12:20:03;5.45;;;3.88;;
74227;SDS011;62587;52.352;5.006;2022-08-19T12:22:29;4.28;;;3.38;;
74227;SDS011;62587;52.352;5.006;2022-08-19T12:24:55;4.68;;;3.78;;
74227;SDS011;62587;52.352;5.006;2022-08-19T12:27:20;5.35;;;3.50;;
74227;SDS011;62587;52.352;5.006;2022-08-19T12:29:46;3.92;;;3.15;;
74227;SDS011;62587;52.352;5.006;2022-08-19T12:32:11;4.95;;;3.40;;
74227;SDS011;62587;52.352;5.006;2022-08-19T12:34:37;5.15;;;3.75;;
74227;SDS011;62587;52.352;5.006;2022-08-19T12:37:04;4.82;;;3.40;;
74227;SDS011;62587;52.352;5.006;2022-08-19T12:39:33;3.75;;;3.33;;
74227;SDS011;62587;52.352;5.006;2022-08-19T12:42:03;4.57;;;3.03;;
74227;SDS011;62587;52.352;5.006;2022-08-19T12:44:29;4.18;;;3.05;;
74227;SDS011;62587;52.352;5.006;2022-08-19T12:46:56;4.95;;;3.08;;
74227;SDS011;62587;52.352;5.006;2022-08-19T12:49:23;5.60;;;3.10;;
74227;SDS011;62587;52.352;5.006;2022-08-19T12:51:48;3.97;;;2.80;;
74227;SDS011;62587;52.352;5.006;2022-08-19T12:54:14;3.30;;;2.90;;
74227;SDS011;62587;52.352;5.006;2022-08-19T12:56:39;3.30;;;2.85;;
74227;SDS011;62587;52.352;5.006;2022-08-19T12:59:07;3.83;;;2.90;;
74227;SDS011;62587;52.352;5.006;2022-08-19T13:01:33;4.80;;;3.00;;
74227;SDS011;62587;52.352;5.006;2022-08-19T13:03:59;2.88;;;2.63;;
74227;SDS011;62587;52.352;5.006;2022-08-19T13:06:25;4.05;;;2.70;;
74227;SDS011;62587;52.352;5.006;2022-08-19T13:08:50;3.47;;;2.38;;
74227;SDS011;62587;52.352;5.006;2022-08-19T13:11:17;3.22;;;2.50;;
74227;SDS011;62587;52.352;5.006;2022-08-19T13:13:45;2.78;;;2.10;;
74227;SDS011;62587;52.352;5.006;2022-08-19T13:16:13;3.15;;;2.42;;
74227;SDS011;62587;52.352;5.006;2022-08-19T13:18:39;3.08;;;2.10;;
74227;SDS011;62587;52.352;5.006;2022-08-19T13:21:07;4.00;;;2.72;;
74227;SDS011;62587;52.352;5.006;2022-08-19T13:26:01;2.50;;;2.08;;
74227;SDS011;62587;52.352;5.006;2022-08-19T13:28:29;3.35;;;2.20;;
74227;SDS011;62587;52.352;5.006;2022-08-19T13:34:00;2.10;;;1.90;;
74227;SDS011;62587;52.352;5.006;2022-08-19T13:36:25;3.03;;;1.90;;
74227;SDS011;62587;52.352;5.006;2022-08-19T13:38:51;2.67;;;1.80;;
74227;SDS011;62587;52.352;5.006;2022-08-19T13:41:16;2.88;;;1.88;;
74227;SDS011;62587;52.352;5.006;2022-08-19T13:43:44;2.95;;;1.77;;
74227;SDS011;62587;52.352;5.006;2022-08-19T13:46:10;2.35;;;1.80;;
74227;SDS011;62587;52.352;5.006;2022-08-19T13:48:39;2.92;;;1.85;;
74227;SDS011;62587;52.352;5.006;2022-08-19T13:51:06;1.88;;;1.52;;
74227;SDS011;62587;52.352;5.006;2022-08-19T13:53:34;2.28;;;1.80;;
74227;SDS011;62587;52.352;5.006;2022-08-19T13:56:06;2.30;;;1.70;;
74227;SDS011;62587;52.352;5.006;2022-08-19T13:58:34;2.08;;;1.70;;
74227;SDS011;62587;52.352;5.006;2022-08-19T14:01:00;2.33;;;1.70;;
74227;SDS011;62587;52.352;5.006;2022-08-19T14:03:26;1.80;;;1.60;;
74227;SDS011;62587;52.352;5.006;2022-08-19T14:05:52;2.30;;;1.70;;
74227;SDS011;62587;52.352;5.006;2022-08-19T14:08:17;2.10;;;1.58;;
74227;SDS011;62587;52.352;5.006;2022-08-19T14:10:43;2.25;;;1.83;;
74227;SDS011;62587;52.352;5.006;2022-08-19T14:13:10;2.38;;;1.48;;
74227;SDS011;62587;52.352;5.006;2022-08-19T14:15:38;2.70;;;1.55;;
74227;SDS011;62587;52.352;5.006;2022-08-19T14:18:03;2.65;;;1.60;;
74227;SDS011;62587;52.352;5.006;2022-08-19T14:20:28;2.08;;;1.40;;
74227;SDS011;62587;52.352;5.006;2022-08-19T14:22:54;2.50;;;1.60;;
74227;SDS011;62587;52.352;5.006;2022-08-19T14:25:24;2.00;;;1.40;;
74227;SDS011;62587;52.352;5.006;2022-08-19T14:27:51;2.35;;;1.58;;
74227;SDS011;62587;52.352;5.006;2022-08-19T14:30:18;2.28;;;1.40;;
74227;SDS011;62587;52.352;5.006;2022-08-19T14:32:46;2.50;;;1.77;;
74227;SDS011;62587;52.352;5.006;2022-08-19T14:35:13;3.30;;;1.33;;
74227;SDS011;62587;52.352;5.006;2022-08-19T14:37:39;2.83;;;1.45;;
74227;SDS011;62587;52.352;5.006;2022-08-19T14:40:06;2.33;;;1.45;;
74227;SDS011;62587;52.352;5.006;2022-08-19T14:42:32;2.20;;;1.77;;
74227;SDS011;62587;52.352;5.006;2022-08-19T14:44:59;1.95;;;1.40;;
74227;SDS011;62587;52.352;5.006;2022-08-19T14:47:25;2.42;;;1.50;;
74227;SDS011;62587;52.352;5.006;2022-08-19T14:49:51;2.00;;;1.58;;